首页
METAR-TAF:

METAR-TAF

机场 :

库奥皮奥机场

庫奧皮奧, 芬兰

纬度: 63-01N, 经度: 027-48E, 海拔: 98米

当前天气观测

该预报发布于32分钟前的05:20 UTC
风速19节,风向西
温度 1°C
湿度 86%
气压 966 hPa
能见度10公里或以上
多云层高于1500英尺

METAR: EFKU 230520Z AUTO 26019KT 9999 BKN015 01/M01 Q0966

时间: 07:52 (05:52 UTC)

预报

该预报发布于17分钟前的05:35 UTC
预报有效从23日的 06点(UTC)到 24日的 06点(UTC)
风速18节,风向西
能见度10公里或以上
多云层高于1500英尺
短暂存在
从 23日的 06点(UTC)到 23日的 10点(UTC)
风速18节,风向西,有时为28节阵风

TAF: EFKU 230535Z 2306/2406 27018KT 9999 BKN015 TEMPO 2306/2310 27018G28KT

超过4000个机场的气象观测和天气预报(METAR&TAF报告)。

可查询的气象台以黄色和红色小点在地图上表示。

将鼠标移到小点上方,可查看气象台名称。

然后点击查看天气观测和预报。

如需切换地图:点击带黑十字的绿色按钮放大地图;点击带横线的绿色按钮缩小地图;或者点击绿色箭头查看邻近地区的地图。


METAR-TAF: